createdAt,value
2022-08-18T00:00:51.329Z,12.83
2022-08-18T00:03:27.195Z,12.97
2022-08-18T00:05:55.129Z,12.13
2022-08-18T00:08:18.225Z,12.97
2022-08-18T00:10:42.165Z,14.07
2022-08-18T00:13:03.747Z,13.83
2022-08-18T00:15:26.181Z,13.80
2022-08-18T00:17:48.520Z,13.47
2022-08-18T00:20:13.032Z,13.77
2022-08-18T00:22:35.900Z,13.10
2022-08-18T00:24:59.446Z,14.47
2022-08-18T00:27:23.797Z,15.13
2022-08-18T00:29:50.297Z,14.63
2022-08-18T00:32:20.401Z,14.47
2022-08-18T00:34:42.066Z,13.77
2022-08-18T00:37:03.706Z,12.97
2022-08-18T00:39:25.409Z,13.40
2022-08-18T00:41:48.149Z,14.37
2022-08-18T00:44:09.799Z,14.23
2022-08-18T00:46:34.235Z,13.73
2022-08-18T00:48:55.775Z,13.67
2022-08-18T00:51:22.422Z,14.00
2022-08-18T00:53:47.920Z,15.20
2022-08-18T00:56:12.688Z,14.53
2022-08-18T00:58:38.407Z,14.27
2022-08-18T01:01:02.941Z,14.27
2022-08-18T01:03:25.438Z,13.07
2022-08-18T01:05:50.090Z,12.67
2022-08-18T01:08:14.765Z,12.80
2022-08-18T01:10:38.554Z,13.47
2022-08-18T01:13:00.502Z,12.53
2022-08-18T01:15:29.051Z,12.20
2022-08-18T01:18:10.983Z,12.03
2022-08-18T01:21:01.419Z,13.90
2022-08-18T01:23:24.698Z,14.37
2022-08-18T01:26:02.986Z,13.97
2022-08-18T01:28:24.243Z,14.73
2022-08-18T01:30:48.543Z,14.63
2022-08-18T01:33:10.634Z,15.53
2022-08-18T01:35:41.533Z,15.83
2022-08-18T01:38:03.051Z,15.30
2022-08-18T01:41:21.973Z,15.73
2022-08-18T01:43:08.046Z,14.13
2022-08-18T01:45:29.383Z,14.40
2022-08-18T01:47:51.327Z,15.40
2022-08-18T01:50:13.322Z,16.80
2022-08-18T01:52:36.442Z,16.20
2022-08-18T01:54:58.862Z,15.10
2022-08-18T01:57:22.152Z,14.57
2022-08-18T01:59:44.196Z,15.43
2022-08-18T02:02:05.817Z,16.37
2022-08-18T02:04:37.250Z,16.93
2022-08-18T02:06:59.161Z,15.50
2022-08-18T02:09:24.125Z,17.27
2022-08-18T02:11:47.122Z,17.20
2022-08-18T02:14:12.091Z,16.47
2022-08-18T02:16:34.452Z,15.43
2022-08-18T02:18:56.145Z,15.60
2022-08-18T02:21:19.614Z,15.13
2022-08-18T02:23:53.071Z,15.80
2022-08-18T02:26:17.984Z,16.13
2022-08-18T02:28:40.557Z,15.90
2022-08-18T02:31:07.149Z,14.77
2022-08-18T02:33:32.814Z,15.27
2022-08-18T02:35:55.430Z,15.43
2022-08-18T02:38:17.412Z,15.77
2022-08-18T02:40:39.384Z,15.50
2022-08-18T02:43:01.343Z,15.30
2022-08-18T02:45:24.231Z,15.27
2022-08-18T02:47:47.062Z,15.20
2022-08-18T02:50:10.998Z,15.27
2022-08-18T02:52:32.896Z,15.57
2022-08-18T02:54:54.257Z,15.43
2022-08-18T02:57:16.134Z,16.13
2022-08-18T02:59:38.499Z,15.60
2022-08-18T03:02:00.647Z,16.60
2022-08-18T03:04:29.237Z,16.60
2022-08-18T03:06:51.566Z,18.10
2022-08-18T03:09:14.837Z,18.47
2022-08-18T03:11:36.916Z,18.63
2022-08-18T03:13:58.827Z,18.33
2022-08-18T03:16:21.315Z,17.00
2022-08-18T03:18:43.152Z,16.13
2022-08-18T03:21:08.314Z,17.13
2022-08-18T03:23:31.149Z,16.53
2022-08-18T03:25:52.669Z,16.70
2022-08-18T03:28:14.762Z,16.37
2022-08-18T03:30:36.244Z,17.33
2022-08-18T03:32:58.271Z,17.30
2022-08-18T03:35:19.970Z,16.20
2022-08-18T03:37:43.199Z,18.23
2022-08-18T03:40:05.378Z,19.37
2022-08-18T03:42:27.107Z,18.70
2022-08-18T03:44:48.719Z,18.33
2022-08-18T03:47:12.033Z,18.23
2022-08-18T03:49:34.485Z,17.47
2022-08-18T03:51:56.531Z,17.33
2022-08-18T03:54:19.780Z,17.57
2022-08-18T03:56:43.048Z,18.43
2022-08-18T03:59:05.859Z,18.70
2022-08-18T04:01:30.275Z,18.33
2022-08-18T04:03:53.242Z,17.47
2022-08-18T04:06:16.768Z,16.30
2022-08-18T04:08:52.514Z,15.80
2022-08-18T04:11:15.334Z,15.77
2022-08-18T04:13:39.179Z,14.97
2022-08-18T04:16:00.989Z,14.10
2022-08-18T04:18:22.996Z,13.57
2022-08-18T04:20:59.539Z,14.30
2022-08-18T04:23:23.578Z,11.97
2022-08-18T04:25:44.824Z,13.43
2022-08-18T04:28:07.428Z,12.50
2022-08-18T04:30:29.138Z,12.33
2022-08-18T04:32:51.272Z,13.23
2022-08-18T04:35:14.268Z,12.40
2022-08-18T04:37:39.705Z,12.20
2022-08-18T04:40:03.697Z,12.27
2022-08-18T04:42:25.467Z,13.07
2022-08-18T04:44:48.134Z,11.87
2022-08-18T04:47:10.403Z,11.93
2022-08-18T04:49:33.529Z,11.33
2022-08-18T04:52:27.063Z,11.30
2022-08-18T04:54:54.643Z,10.43
2022-08-18T04:57:18.195Z,10.53
2022-08-18T04:59:40.225Z,10.37
2022-08-18T05:02:05.885Z,11.27
2022-08-18T05:04:28.800Z,10.83
2022-08-18T05:06:50.187Z,9.87
2022-08-18T05:09:13.244Z,10.17
2022-08-18T05:11:38.982Z,10.20
2022-08-18T05:14:01.383Z,10.33
2022-08-18T05:16:27.274Z,10.60
2022-08-18T05:18:51.327Z,10.53
2022-08-18T05:21:15.811Z,10.10
2022-08-18T05:23:37.339Z,9.80
2022-08-18T05:25:59.697Z,9.30
2022-08-18T05:28:21.076Z,8.90
2022-08-18T05:30:43.691Z,9.47
2022-08-18T05:33:04.982Z,9.93
2022-08-18T05:35:32.458Z,9.70
2022-08-18T05:38:02.625Z,9.70
2022-08-18T05:40:25.950Z,9.30
2022-08-18T05:42:48.860Z,10.07
2022-08-18T05:45:13.431Z,9.37
2022-08-18T05:47:35.054Z,9.70
2022-08-18T05:49:57.626Z,9.63
2022-08-18T05:52:23.280Z,9.33
2022-08-18T05:55:06.063Z,9.33
2022-08-18T05:57:31.455Z,9.97
2022-08-18T05:59:54.103Z,9.57
2022-08-18T06:02:21.854Z,9.20
2022-08-18T06:04:45.985Z,10.10
2022-08-18T06:07:12.098Z,9.47
2022-08-18T06:09:39.189Z,9.70
2022-08-18T06:12:14.418Z,9.67
2022-08-18T06:14:38.886Z,14.97
2022-08-18T06:17:06.701Z,17.40
2022-08-18T06:19:40.428Z,8.43
2022-08-18T06:22:12.049Z,18.33
2022-08-18T06:24:38.646Z,15.13
2022-08-18T06:27:07.293Z,20.37
2022-08-18T06:29:38.694Z,8.47
2022-08-18T06:32:10.281Z,9.63
2022-08-18T06:34:42.575Z,8.57
2022-08-18T06:37:13.082Z,16.23
2022-08-18T06:39:37.552Z,16.77
2022-08-18T06:41:58.961Z,11.07
2022-08-18T06:44:25.169Z,13.97
2022-08-18T06:46:50.227Z,24.20
2022-08-18T06:49:36.308Z,14.03
2022-08-18T06:51:57.590Z,19.60
2022-08-18T06:54:30.654Z,15.97
2022-08-18T06:56:55.258Z,16.90
2022-08-18T06:59:21.872Z,17.07
2022-08-18T07:01:43.570Z,16.17
2022-08-18T07:04:04.978Z,9.97
2022-08-18T07:06:30.588Z,21.40
2022-08-18T07:08:53.581Z,17.97
2022-08-18T07:11:21.563Z,13.83
2022-08-18T07:13:47.951Z,11.50
2022-08-18T07:16:34.265Z,11.97
2022-08-18T07:19:08.274Z,10.27
2022-08-18T07:21:31.962Z,10.00
2022-08-18T07:24:23.035Z,16.37
2022-08-18T07:27:01.489Z,11.50
2022-08-18T07:29:24.012Z,11.33
2022-08-18T07:31:49.150Z,12.03
2022-08-18T07:34:14.490Z,11.30
2022-08-18T07:36:40.056Z,11.07
2022-08-18T07:39:05.064Z,10.43
2022-08-18T07:41:29.167Z,11.67
2022-08-18T07:43:59.339Z,8.77
2022-08-18T07:46:26.307Z,9.30
2022-08-18T07:48:48.025Z,8.80
2022-08-18T07:51:17.237Z,8.73
2022-08-18T07:53:55.585Z,9.10
2022-08-18T07:56:23.014Z,10.20
2022-08-18T07:58:48.686Z,8.33
2022-08-18T08:01:18.612Z,8.20
2022-08-18T08:03:50.490Z,8.33
2022-08-18T08:06:23.475Z,8.50
2022-08-18T08:08:51.430Z,8.77
2022-08-18T08:11:21.913Z,9.10
2022-08-18T08:13:56.443Z,9.60
2022-08-18T08:16:22.740Z,8.70
2022-08-18T08:18:51.217Z,9.17
2022-08-18T08:21:16.091Z,9.77
2022-08-18T08:23:50.047Z,9.27
2022-08-18T08:26:38.198Z,9.13
2022-08-18T08:29:08.200Z,9.03
2022-08-18T08:31:37.952Z,9.73
2022-08-18T08:34:06.253Z,9.80
2022-08-18T08:36:31.288Z,8.27
2022-08-18T08:38:57.066Z,8.60
2022-08-18T08:41:21.347Z,8.13
2022-08-18T08:43:45.410Z,8.60
2022-08-18T08:46:11.430Z,8.90
2022-08-18T08:48:34.803Z,8.77
2022-08-18T08:51:00.004Z,8.60
2022-08-18T08:53:24.179Z,8.00
2022-08-18T08:55:48.550Z,8.90
2022-08-18T08:58:18.369Z,8.70
2022-08-18T09:00:41.062Z,8.77
2022-08-18T09:03:10.386Z,8.67
2022-08-18T09:05:36.474Z,8.50
2022-08-18T09:08:14.796Z,9.07
2022-08-18T09:10:47.221Z,8.83
2022-08-18T09:13:29.143Z,8.57
2022-08-18T09:16:12.313Z,8.40
2022-08-18T09:18:52.674Z,8.30
2022-08-18T09:21:22.766Z,8.70
2022-08-18T09:23:48.572Z,8.13
2022-08-18T09:26:40.939Z,8.40
2022-08-18T09:29:23.550Z,9.20
2022-08-18T09:31:46.953Z,9.07
2022-08-18T09:34:23.203Z,9.37
2022-08-18T09:36:59.106Z,9.00
2022-08-18T09:39:53.169Z,8.77
2022-08-18T09:42:18.881Z,8.63
2022-08-18T09:45:04.248Z,8.83
2022-08-18T09:48:08.742Z,9.93
2022-08-18T09:50:57.925Z,10.10
2022-08-18T09:53:36.869Z,11.20
2022-08-18T09:56:05.262Z,9.47
2022-08-18T09:58:50.281Z,9.73
2022-08-18T10:01:21.313Z,10.93
2022-08-18T10:03:42.955Z,11.13
2022-08-18T10:06:20.816Z,10.40
2022-08-18T10:12:19.281Z,10.60
2022-08-18T10:15:14.422Z,11.03
2022-08-18T10:18:00.953Z,11.60
2022-08-18T10:20:32.034Z,11.50
2022-08-18T10:22:53.930Z,10.60
2022-08-18T10:25:33.231Z,10.27
2022-08-18T10:27:56.787Z,11.10
2022-08-18T10:30:56.581Z,11.47
2022-08-18T10:33:56.160Z,10.03
2022-08-18T10:36:34.866Z,10.70
2022-08-18T10:38:56.580Z,10.60
2022-08-18T10:41:25.598Z,11.10
2022-08-18T10:43:57.392Z,10.60
2022-08-18T10:46:25.449Z,10.77
2022-08-18T10:49:00.391Z,9.90
2022-08-18T10:51:58.003Z,10.20
2022-08-18T10:54:22.322Z,9.07
2022-08-18T10:56:49.831Z,10.50
2022-08-18T10:59:18.913Z,9.10
2022-08-18T11:01:54.079Z,10.70
2022-08-18T11:04:33.863Z,10.53
2022-08-18T11:07:07.622Z,10.10
2022-08-18T11:09:31.123Z,10.17
2022-08-18T11:12:01.783Z,8.00
2022-08-18T11:17:55.737Z,10.80
2022-08-18T11:20:21.657Z,10.57
2022-08-18T11:22:55.296Z,10.67
2022-08-18T11:25:22.312Z,10.57
2022-08-18T11:27:47.535Z,10.03
2022-08-18T11:30:13.506Z,9.40
2022-08-18T11:32:42.518Z,8.60
2022-08-18T11:35:16.277Z,8.53
2022-08-18T11:37:49.017Z,7.93
2022-08-18T11:43:12.834Z,8.13
2022-08-18T11:45:52.293Z,8.70
2022-08-18T11:48:21.064Z,8.10
2022-08-18T11:50:54.590Z,8.43
2022-08-18T11:53:24.100Z,9.47
2022-08-18T11:55:48.295Z,8.97
2022-08-18T11:58:39.087Z,7.93
2022-08-18T12:01:03.206Z,9.47
2022-08-18T12:03:31.916Z,8.30
2022-08-18T12:05:56.716Z,8.47
2022-08-18T12:08:50.549Z,8.30
2022-08-18T12:11:26.584Z,8.50
2022-08-18T12:13:49.984Z,7.97
2022-08-18T12:16:16.852Z,9.80
2022-08-18T12:18:39.098Z,7.73
2022-08-18T12:21:03.104Z,9.33
2022-08-18T12:23:25.004Z,8.90
2022-08-18T12:25:46.134Z,9.27
2022-08-18T12:28:13.290Z,9.40
2022-08-18T12:30:35.422Z,9.17
2022-08-18T12:33:10.217Z,10.20
2022-08-18T12:35:34.753Z,10.53
2022-08-18T12:38:00.441Z,10.13
2022-08-18T12:40:25.789Z,9.47
2022-08-18T12:42:50.945Z,10.00
2022-08-18T12:45:12.483Z,9.40
2022-08-18T12:47:33.863Z,9.50
2022-08-18T12:50:03.119Z,9.50
2022-08-18T12:52:25.722Z,9.60
2022-08-18T12:54:55.097Z,9.90
2022-08-18T12:57:33.460Z,9.20
2022-08-18T13:00:04.223Z,9.87
2022-08-18T13:02:25.506Z,8.90
2022-08-18T13:04:47.254Z,9.23
2022-08-18T13:07:12.583Z,8.33
2022-08-18T13:09:53.223Z,8.37
2022-08-18T13:12:16.465Z,7.70
2022-08-18T13:14:38.454Z,8.50
2022-08-18T13:17:04.953Z,7.93
2022-08-18T13:19:32.078Z,8.17
2022-08-18T13:21:54.438Z,8.30
2022-08-18T13:24:21.216Z,7.27
2022-08-18T13:26:46.190Z,7.57
2022-08-18T13:29:10.264Z,8.03
2022-08-18T13:31:34.624Z,7.60
2022-08-18T13:34:03.834Z,7.47
2022-08-18T13:36:26.926Z,7.50
2022-08-18T13:38:52.376Z,7.57
2022-08-18T13:41:17.568Z,7.63
2022-08-18T13:43:42.033Z,7.90
2022-08-18T13:46:03.938Z,8.03
2022-08-18T13:48:26.041Z,7.97
2022-08-18T13:50:47.586Z,7.23
2022-08-18T13:53:15.907Z,8.30
2022-08-18T13:55:37.562Z,8.00
2022-08-18T13:58:00.713Z,8.30
2022-08-18T14:00:29.976Z,7.37
2022-08-18T14:02:55.448Z,8.23
2022-08-18T14:05:18.448Z,8.37
2022-08-18T14:07:42.643Z,8.63
2022-08-18T14:10:04.911Z,7.80
2022-08-18T14:12:32.663Z,7.83
2022-08-18T14:14:56.873Z,7.97
2022-08-18T14:17:18.560Z,7.70
2022-08-18T14:19:58.197Z,7.63
2022-08-18T14:22:36.978Z,8.10
2022-08-18T14:25:16.217Z,8.20
2022-08-18T14:27:44.265Z,7.60
2022-08-18T14:30:19.595Z,8.00
2022-08-18T14:32:49.241Z,7.87
2022-08-18T14:35:34.517Z,7.87
2022-08-18T14:37:54.715Z,7.60
2022-08-18T14:40:20.209Z,7.57
2022-08-18T14:42:54.974Z,8.57
2022-08-18T14:45:34.171Z,8.23
2022-08-18T14:47:58.586Z,8.77
2022-08-18T14:50:22.010Z,8.60
2022-08-18T14:52:51.120Z,8.27
2022-08-18T14:55:12.832Z,8.27
2022-08-18T14:57:34.641Z,8.87
2022-08-18T14:59:57.489Z,9.13
2022-08-18T15:02:18.991Z,8.40
2022-08-18T15:04:53.250Z,8.63
2022-08-18T15:07:23.895Z,8.40
2022-08-18T15:09:45.579Z,8.00
2022-08-18T15:12:08.672Z,8.93
2022-08-18T15:14:33.199Z,8.20
2022-08-18T15:16:56.456Z,7.97
2022-08-18T15:19:58.160Z,8.77
2022-08-18T15:22:17.437Z,8.73
2022-08-18T15:24:58.884Z,8.17
2022-08-18T15:27:42.865Z,8.10
2022-08-18T15:30:05.776Z,8.93
2022-08-18T15:32:30.377Z,8.37
2022-08-18T15:34:51.934Z,7.37
2022-08-18T15:37:15.219Z,7.90
2022-08-18T15:39:37.189Z,8.50
2022-08-18T15:41:58.859Z,8.20
2022-08-18T15:44:22.429Z,7.70
2022-08-18T15:46:47.304Z,8.03
2022-08-18T15:49:15.032Z,8.03
2022-08-18T15:51:41.178Z,8.10
2022-08-18T15:54:05.253Z,7.93
2022-08-18T15:56:28.821Z,7.20
2022-08-18T15:58:50.556Z,7.37
2022-08-18T16:01:30.059Z,7.53
2022-08-18T16:03:55.501Z,7.30
2022-08-18T16:06:20.429Z,7.20
2022-08-18T16:08:41.757Z,7.27
2022-08-18T16:11:11.016Z,8.03
2022-08-18T16:13:46.836Z,7.97
2022-08-18T16:16:12.760Z,7.33
2022-08-18T16:18:34.161Z,7.43
2022-08-18T16:20:56.669Z,7.50
2022-08-18T16:23:18.414Z,8.00
2022-08-18T16:25:39.848Z,7.80
2022-08-18T16:28:02.856Z,7.80
2022-08-18T16:30:26.624Z,7.90
2022-08-18T16:32:48.589Z,8.73
2022-08-18T16:35:11.181Z,8.07
2022-08-18T16:37:32.752Z,7.20
2022-08-18T16:39:54.733Z,7.83
2022-08-18T16:42:17.292Z,8.47
2022-08-18T16:44:40.307Z,7.90
2022-08-18T16:47:02.361Z,8.33
2022-08-18T16:49:23.999Z,7.50
2022-08-18T16:51:45.773Z,8.57
2022-08-18T16:54:07.341Z,8.03
2022-08-18T16:56:30.486Z,8.17
2022-08-18T16:59:09.734Z,8.80
2022-08-18T17:01:51.087Z,8.60
2022-08-18T17:04:14.844Z,8.77
2022-08-18T17:06:47.061Z,8.77
2022-08-18T17:09:10.318Z,8.23
2022-08-18T17:11:32.746Z,8.50
2022-08-18T17:13:55.690Z,9.70
2022-08-18T17:16:18.771Z,10.03
2022-08-18T17:18:41.971Z,9.00
2022-08-18T17:21:04.409Z,8.80
2022-08-18T17:23:26.712Z,8.60
2022-08-18T17:25:49.947Z,8.27
2022-08-18T17:28:12.425Z,8.90
2022-08-18T17:30:36.945Z,8.77
2022-08-18T17:33:04.871Z,10.67
2022-08-18T17:35:30.554Z,8.77
2022-08-18T17:37:55.681Z,8.67
2022-08-18T17:40:21.519Z,10.30
2022-08-18T17:42:43.979Z,8.63
2022-08-18T17:45:07.488Z,8.90
2022-08-18T17:47:34.657Z,8.97
2022-08-18T17:50:27.568Z,8.57
2022-08-18T17:52:55.765Z,9.33
2022-08-18T17:55:24.824Z,9.47
2022-08-18T17:57:58.578Z,9.87
2022-08-18T18:00:22.036Z,10.00
2022-08-18T18:02:46.957Z,9.67
2022-08-18T18:05:12.971Z,10.20
2022-08-18T18:07:40.461Z,9.87
2022-08-18T18:10:10.016Z,9.90
2022-08-18T18:12:34.912Z,9.57
2022-08-18T18:14:57.510Z,10.27
2022-08-18T18:17:25.471Z,10.33
2022-08-18T18:19:50.517Z,14.40
2022-08-18T18:22:21.006Z,11.07
2022-08-18T18:24:52.420Z,11.03
2022-08-18T18:27:32.097Z,11.17
2022-08-18T18:29:58.271Z,10.70
2022-08-18T18:32:27.817Z,11.13
2022-08-18T18:35:08.369Z,12.30
2022-08-18T18:37:33.187Z,11.70
2022-08-18T18:39:58.106Z,12.23
2022-08-18T18:42:27.384Z,12.73
2022-08-18T18:44:56.119Z,13.70
2022-08-18T18:47:40.666Z,13.60
2022-08-18T18:50:09.596Z,13.43
2022-08-18T18:52:37.760Z,14.10
2022-08-18T18:55:04.672Z,13.60
2022-08-18T18:57:34.651Z,17.43
2022-08-18T19:00:10.991Z,14.90
2022-08-18T19:02:40.693Z,13.77
2022-08-18T19:05:12.812Z,14.47
2022-08-18T19:07:46.553Z,14.73
2022-08-18T19:10:11.433Z,15.30
2022-08-18T19:12:38.311Z,14.93
2022-08-18T19:15:08.925Z,14.80
2022-08-18T19:17:38.119Z,15.33
2022-08-18T19:20:03.674Z,16.03
2022-08-18T19:22:29.884Z,15.80
2022-08-18T19:24:59.037Z,15.23
2022-08-18T19:27:27.276Z,16.00
2022-08-18T19:29:50.245Z,15.70
2022-08-18T19:32:17.349Z,16.33
2022-08-18T19:34:52.516Z,15.73
2022-08-18T19:37:27.371Z,15.60
2022-08-18T19:40:01.835Z,15.27
2022-08-18T19:42:29.164Z,15.60
2022-08-18T19:45:16.002Z,16.57
2022-08-18T19:47:46.829Z,17.10
2022-08-18T19:50:15.659Z,16.97
2022-08-18T19:52:52.748Z,16.17
2022-08-18T19:55:28.383Z,16.70
2022-08-18T19:58:01.812Z,17.70
2022-08-18T20:00:32.741Z,17.57
2022-08-18T20:03:23.213Z,18.07
2022-08-18T20:05:51.933Z,18.17
2022-08-18T20:08:53.573Z,17.13
2022-08-18T20:11:41.078Z,17.47
2022-08-18T20:14:05.341Z,17.30
2022-08-18T20:16:44.130Z,18.50
2022-08-18T20:19:45.467Z,16.97
2022-08-18T20:22:16.324Z,18.43
2022-08-18T20:24:51.943Z,18.47
2022-08-18T20:27:27.841Z,17.83
2022-08-18T20:30:25.746Z,18.00
2022-08-18T20:33:10.876Z,17.90
2022-08-18T20:35:38.863Z,17.43
2022-08-18T20:38:14.627Z,18.03
2022-08-18T20:40:44.653Z,19.13
2022-08-18T20:43:07.628Z,18.70
2022-08-18T20:45:30.481Z,18.70
2022-08-18T20:48:03.361Z,18.17
2022-08-18T20:51:03.578Z,18.07
2022-08-18T20:54:04.380Z,19.43
2022-08-18T20:56:43.792Z,18.67
2022-08-18T20:59:08.983Z,17.33
2022-08-18T21:01:32.838Z,17.83
2022-08-18T21:03:54.077Z,18.60
2022-08-18T21:06:21.302Z,18.33
2022-08-18T21:08:48.497Z,17.43
2022-08-18T21:11:27.140Z,17.70
2022-08-18T21:13:56.863Z,17.60
2022-08-18T21:16:38.715Z,16.77
2022-08-18T21:19:02.545Z,17.40
2022-08-18T21:21:27.473Z,17.83
2022-08-18T21:23:54.232Z,16.60
2022-08-18T21:26:17.343Z,17.33
2022-08-18T21:28:43.044Z,18.50
2022-08-18T21:31:43.040Z,17.60
2022-08-18T21:33:52.573Z,18.90
2022-08-18T21:36:14.712Z,18.83
2022-08-18T21:38:36.385Z,19.40
2022-08-18T21:41:02.101Z,20.07
2022-08-18T21:43:39.327Z,21.00
2022-08-18T21:46:03.160Z,22.13
2022-08-18T21:48:24.691Z,22.03
2022-08-18T21:50:51.395Z,24.03
2022-08-18T21:53:20.267Z,25.60
2022-08-18T21:55:45.093Z,25.27
2022-08-18T21:58:08.733Z,25.53
2022-08-18T22:00:33.872Z,25.37
2022-08-18T22:05:30.353Z,25.73
2022-08-18T22:08:20.173Z,24.77
2022-08-18T22:11:02.802Z,27.13
2022-08-18T22:13:44.469Z,25.27
2022-08-18T22:16:25.882Z,26.27
2022-08-18T22:18:47.490Z,25.37
2022-08-18T22:21:31.984Z,25.77
2022-08-18T22:24:11.681Z,25.37
2022-08-18T22:26:35.406Z,24.13
2022-08-18T22:29:00.812Z,25.63
2022-08-18T22:31:22.914Z,27.60
2022-08-18T22:33:44.810Z,25.87
2022-08-18T22:36:06.444Z,24.47
2022-08-18T22:38:30.768Z,24.73
2022-08-18T22:40:52.670Z,23.30
2022-08-18T22:43:14.420Z,26.00
2022-08-18T22:45:36.155Z,26.13
2022-08-18T22:47:58.627Z,26.77
2022-08-18T22:50:21.546Z,23.80
2022-08-18T22:52:46.451Z,25.67
2022-08-18T22:55:14.023Z,23.97
2022-08-18T22:57:37.582Z,23.90
2022-08-18T23:00:00.692Z,23.27
2022-08-18T23:02:23.034Z,25.63
2022-08-18T23:04:45.999Z,24.77
2022-08-18T23:07:08.737Z,25.40
2022-08-18T23:09:33.536Z,26.13
2022-08-18T23:12:02.271Z,24.43
2022-08-18T23:14:24.952Z,26.60
2022-08-18T23:16:47.244Z,25.43
2022-08-18T23:19:09.119Z,25.47
2022-08-18T23:21:34.963Z,24.57
2022-08-18T23:23:58.891Z,24.57
2022-08-18T23:26:23.431Z,24.67
2022-08-18T23:28:48.483Z,27.00
2022-08-18T23:31:15.381Z,24.83
2022-08-18T23:33:37.150Z,27.87
2022-08-18T23:35:59.144Z,27.93
2022-08-18T23:38:21.840Z,24.33
2022-08-18T23:40:53.887Z,28.00
2022-08-18T23:43:19.733Z,27.63
2022-08-18T23:45:47.651Z,28.07
2022-08-18T23:48:11.876Z,28.43
2022-08-18T23:50:34.295Z,27.63
2022-08-18T23:52:57.960Z,27.67
2022-08-18T23:55:20.143Z,30.23
2022-08-18T23:57:43.281Z,28.20
